sensor_id;sensor_type;location;lat;lon;timestamp;temperature;humidity
35127;DHT22;21300;52.006;5.798;2023-09-08T00:02:24;17.70;99.90
35127;DHT22;21300;52.006;5.798;2023-09-08T00:04:50;17.80;99.90
35127;DHT22;21300;52.006;5.798;2023-09-08T00:07:15;17.80;99.90
35127;DHT22;21300;52.006;5.798;2023-09-08T00:09:41;17.80;99.90
35127;DHT22;21300;52.006;5.798;2023-09-08T00:12:07;17.80;99.90
35127;DHT22;21300;52.006;5.798;2023-09-08T00:14:32;17.80;99.90
35127;DHT22;21300;52.006;5.798;2023-09-08T00:16:58;17.70;99.90
35127;DHT22;21300;52.006;5.798;2023-09-08T00:19:24;17.70;99.90
35127;DHT22;21300;52.006;5.798;2023-09-08T00:21:49;17.70;99.90
35127;DHT22;21300;52.006;5.798;2023-09-08T00:24:15;17.80;99.90
35127;DHT22;21300;52.006;5.798;2023-09-08T00:26:41;17.90;99.90
35127;DHT22;21300;52.006;5.798;2023-09-08T00:29:07;17.90;99.90
35127;DHT22;21300;52.006;5.798;2023-09-08T00:31:33;17.90;99.90
35127;DHT22;21300;52.006;5.798;2023-09-08T00:33:58;17.80;99.90
35127;DHT22;21300;52.006;5.798;2023-09-08T00:36:24;17.80;99.90
35127;DHT22;21300;52.006;5.798;2023-09-08T00:38:50;17.80;99.90
35127;DHT22;21300;52.006;5.798;2023-09-08T00:41:15;17.80;99.90
35127;DHT22;21300;52.006;5.798;2023-09-08T00:43:41;17.80;99.90
35127;DHT22;21300;52.006;5.798;2023-09-08T00:46:08;17.70;99.90
35127;DHT22;21300;52.006;5.798;2023-09-08T00:48:34;17.80;99.90
35127;DHT22;21300;52.006;5.798;2023-09-08T00:51:01;17.80;99.90
35127;DHT22;21300;52.006;5.798;2023-09-08T00:53:26;17.70;99.90
35127;DHT22;21300;52.006;5.798;2023-09-08T00:55:53;17.60;99.90
35127;DHT22;21300;52.006;5.798;2023-09-08T00:58:19;17.60;99.90
35127;DHT22;21300;52.006;5.798;2023-09-08T01:00:45;17.50;99.90
35127;DHT22;21300;52.006;5.798;2023-09-08T01:03:12;17.50;99.90
35127;DHT22;21300;52.006;5.798;2023-09-08T01:05:38;17.40;99.90
35127;DHT22;21300;52.006;5.798;2023-09-08T01:08:04;17.30;99.90
35127;DHT22;21300;52.006;5.798;2023-09-08T01:10:31;17.20;99.90
35127;DHT22;21300;52.006;5.798;2023-09-08T01:15:40;17.10;99.90
35127;DHT22;21300;52.006;5.798;2023-09-08T01:18:06;17.10;99.90
35127;DHT22;21300;52.006;5.798;2023-09-08T01:20:48;17.00;99.90
35127;DHT22;21300;52.006;5.798;2023-09-08T01:23:24;17.00;99.90
35127;DHT22;21300;52.006;5.798;2023-09-08T01:26:10;17.00;99.90
35127;DHT22;21300;52.006;5.798;2023-09-08T01:28:40;17.00;99.90
35127;DHT22;21300;52.006;5.798;2023-09-08T01:31:06;17.00;99.90
35127;DHT22;21300;52.006;5.798;2023-09-08T01:33:32;17.00;99.90
35127;DHT22;21300;52.006;5.798;2023-09-08T01:35:59;16.90;99.90
35127;DHT22;21300;52.006;5.798;2023-09-08T01:38:25;16.90;99.90
35127;DHT22;21300;52.006;5.798;2023-09-08T01:40:50;16.90;99.90
35127;DHT22;21300;52.006;5.798;2023-09-08T01:43:16;16.80;99.90
35127;DHT22;21300;52.006;5.798;2023-09-08T01:45:42;16.70;99.90
35127;DHT22;21300;52.006;5.798;2023-09-08T01:48:08;16.60;99.90
35127;DHT22;21300;52.006;5.798;2023-09-08T01:50:33;16.60;99.90
35127;DHT22;21300;52.006;5.798;2023-09-08T01:52:59;16.60;99.90
35127;DHT22;21300;52.006;5.798;2023-09-08T01:55:25;16.60;99.90
35127;DHT22;21300;52.006;5.798;2023-09-08T01:57:51;16.40;99.90
35127;DHT22;21300;52.006;5.798;2023-09-08T02:00:17;16.40;99.90
35127;DHT22;21300;52.006;5.798;2023-09-08T02:02:43;16.30;99.90
35127;DHT22;21300;52.006;5.798;2023-09-08T02:05:09;16.30;99.90
35127;DHT22;21300;52.006;5.798;2023-09-08T02:07:35;16.20;99.90
35127;DHT22;21300;52.006;5.798;2023-09-08T02:10:01;16.10;99.90
35127;DHT22;21300;52.006;5.798;2023-09-08T02:12:27;16.10;99.90
35127;DHT22;21300;52.006;5.798;2023-09-08T02:14:52;16.00;99.90
35127;DHT22;21300;52.006;5.798;2023-09-08T02:17:18;16.00;99.90
35127;DHT22;21300;52.006;5.798;2023-09-08T02:19:44;16.00;99.90
35127;DHT22;21300;52.006;5.798;2023-09-08T02:22:09;15.90;99.90
35127;DHT22;21300;52.006;5.798;2023-09-08T02:27:19;15.90;99.90
35127;DHT22;21300;52.006;5.798;2023-09-08T02:29:45;15.80;99.90
35127;DHT22;21300;52.006;5.798;2023-09-08T02:32:11;15.70;99.90
35127;DHT22;21300;52.006;5.798;2023-09-08T02:34:37;15.70;99.90
35127;DHT22;21300;52.006;5.798;2023-09-08T02:37:02;15.60;99.90
35127;DHT22;21300;52.006;5.798;2023-09-08T02:39:28;15.60;99.90
35127;DHT22;21300;52.006;5.798;2023-09-08T02:41:54;15.50;99.90
35127;DHT22;21300;52.006;5.798;2023-09-08T02:44:20;15.50;99.90
35127;DHT22;21300;52.006;5.798;2023-09-08T02:46:47;15.50;99.90
35127;DHT22;21300;52.006;5.798;2023-09-08T02:49:13;15.40;99.90
35127;DHT22;21300;52.006;5.798;2023-09-08T02:51:38;15.30;99.90
35127;DHT22;21300;52.006;5.798;2023-09-08T02:54:04;15.30;99.90
35127;DHT22;21300;52.006;5.798;2023-09-08T02:56:30;15.30;99.90
35127;DHT22;21300;52.006;5.798;2023-09-08T02:58:55;15.30;99.90
35127;DHT22;21300;52.006;5.798;2023-09-08T03:01:21;15.20;99.90
35127;DHT22;21300;52.006;5.798;2023-09-08T03:03:47;15.20;99.90
35127;DHT22;21300;52.006;5.798;2023-09-08T03:06:15;15.10;99.90
35127;DHT22;21300;52.006;5.798;2023-09-08T03:08:40;15.10;99.90
35127;DHT22;21300;52.006;5.798;2023-09-08T03:11:08;15.10;99.90
35127;DHT22;21300;52.006;5.798;2023-09-08T03:13:34;15.00;99.90
35127;DHT22;21300;52.006;5.798;2023-09-08T03:16:08;15.00;99.90
35127;DHT22;21300;52.006;5.798;2023-09-08T03:18:34;15.00;99.90
35127;DHT22;21300;52.006;5.798;2023-09-08T03:21:02;15.00;99.90
35127;DHT22;21300;52.006;5.798;2023-09-08T03:23:38;15.00;99.90
35127;DHT22;21300;52.006;5.798;2023-09-08T03:26:05;15.00;99.90
35127;DHT22;21300;52.006;5.798;2023-09-08T03:28:31;15.00;99.90
35127;DHT22;21300;52.006;5.798;2023-09-08T03:30:57;14.90;99.90
35127;DHT22;21300;52.006;5.798;2023-09-08T03:33:23;14.90;99.90
35127;DHT22;21300;52.006;5.798;2023-09-08T03:35:49;14.90;99.90
35127;DHT22;21300;52.006;5.798;2023-09-08T03:38:15;14.90;99.90
35127;DHT22;21300;52.006;5.798;2023-09-08T03:40:40;14.90;99.90
35127;DHT22;21300;52.006;5.798;2023-09-08T03:43:06;14.80;99.90
35127;DHT22;21300;52.006;5.798;2023-09-08T03:45:32;14.80;99.90
35127;DHT22;21300;52.006;5.798;2023-09-08T03:47:58;14.80;99.90
35127;DHT22;21300;52.006;5.798;2023-09-08T03:50:26;14.70;99.90
35127;DHT22;21300;52.006;5.798;2023-09-08T03:52:51;14.70;99.90
35127;DHT22;21300;52.006;5.798;2023-09-08T03:55:18;14.70;99.90
35127;DHT22;21300;52.006;5.798;2023-09-08T03:57:44;14.60;99.90
35127;DHT22;21300;52.006;5.798;2023-09-08T04:00:10;14.60;99.90
35127;DHT22;21300;52.006;5.798;2023-09-08T04:02:36;14.60;99.90
35127;DHT22;21300;52.006;5.798;2023-09-08T04:05:02;14.60;99.90
35127;DHT22;21300;52.006;5.798;2023-09-08T04:07:28;14.50;99.90
35127;DHT22;21300;52.006;5.798;2023-09-08T04:09:54;14.50;99.90
35127;DHT22;21300;52.006;5.798;2023-09-08T04:12:19;14.50;99.90
35127;DHT22;21300;52.006;5.798;2023-09-08T04:14:45;14.50;99.90
35127;DHT22;21300;52.006;5.798;2023-09-08T04:17:10;14.50;99.90
35127;DHT22;21300;52.006;5.798;2023-09-08T04:19:36;14.50;99.90
35127;DHT22;21300;52.006;5.798;2023-09-08T04:22:02;14.40;99.90
35127;DHT22;21300;52.006;5.798;2023-09-08T04:24:28;14.40;99.90
35127;DHT22;21300;52.006;5.798;2023-09-08T04:26:53;14.40;99.90
35127;DHT22;21300;52.006;5.798;2023-09-08T04:29:19;14.30;99.90
35127;DHT22;21300;52.006;5.798;2023-09-08T04:31:45;14.30;99.90
35127;DHT22;21300;52.006;5.798;2023-09-08T04:34:10;14.30;99.90
35127;DHT22;21300;52.006;5.798;2023-09-08T04:36:36;14.30;99.90
35127;DHT22;21300;52.006;5.798;2023-09-08T04:39:02;14.30;99.90
35127;DHT22;21300;52.006;5.798;2023-09-08T04:41:28;14.30;99.90
35127;DHT22;21300;52.006;5.798;2023-09-08T04:43:53;14.30;99.90
35127;DHT22;21300;52.006;5.798;2023-09-08T04:46:20;14.30;99.90
35127;DHT22;21300;52.006;5.798;2023-09-08T04:48:46;14.30;99.90
35127;DHT22;21300;52.006;5.798;2023-09-08T04:51:11;14.30;99.90
35127;DHT22;21300;52.006;5.798;2023-09-08T04:53:37;14.30;99.90
35127;DHT22;21300;52.006;5.798;2023-09-08T04:56:03;14.30;99.90
35127;DHT22;21300;52.006;5.798;2023-09-08T04:58:29;14.30;99.90
35127;DHT22;21300;52.006;5.798;2023-09-08T05:00:54;14.30;99.90
35127;DHT22;21300;52.006;5.798;2023-09-08T05:03:20;14.30;99.90
35127;DHT22;21300;52.006;5.798;2023-09-08T05:05:46;14.30;99.90
35127;DHT22;21300;52.006;5.798;2023-09-08T05:08:11;14.30;99.90
35127;DHT22;21300;52.006;5.798;2023-09-08T05:10:37;14.30;99.90
35127;DHT22;21300;52.006;5.798;2023-09-08T05:13:03;14.40;99.90
35127;DHT22;21300;52.006;5.798;2023-09-08T05:15:28;14.50;99.90
35127;DHT22;21300;52.006;5.798;2023-09-08T05:17:56;14.50;99.90
35127;DHT22;21300;52.006;5.798;2023-09-08T05:20:21;14.50;99.90
35127;DHT22;21300;52.006;5.798;2023-09-08T05:22:47;14.50;99.90
35127;DHT22;21300;52.006;5.798;2023-09-08T05:25:13;14.60;99.90
35127;DHT22;21300;52.006;5.798;2023-09-08T05:27:39;14.70;99.90
35127;DHT22;21300;52.006;5.798;2023-09-08T05:30:05;14.70;99.90
35127;DHT22;21300;52.006;5.798;2023-09-08T05:32:31;14.70;99.90
35127;DHT22;21300;52.006;5.798;2023-09-08T05:34:57;14.80;99.90
35127;DHT22;21300;52.006;5.798;2023-09-08T05:37:22;14.80;99.90
35127;DHT22;21300;52.006;5.798;2023-09-08T05:39:48;14.90;99.90
35127;DHT22;21300;52.006;5.798;2023-09-08T05:42:14;14.90;99.90
35127;DHT22;21300;52.006;5.798;2023-09-08T05:44:40;15.00;99.90
35127;DHT22;21300;52.006;5.798;2023-09-08T05:47:06;15.00;99.90
35127;DHT22;21300;52.006;5.798;2023-09-08T05:49:32;15.10;99.90
35127;DHT22;21300;52.006;5.798;2023-09-08T05:51:57;15.20;99.90
35127;DHT22;21300;52.006;5.798;2023-09-08T05:54:23;15.20;99.90
35127;DHT22;21300;52.006;5.798;2023-09-08T05:56:49;15.30;99.90
35127;DHT22;21300;52.006;5.798;2023-09-08T05:59:14;15.40;99.90
35127;DHT22;21300;52.006;5.798;2023-09-08T06:01:40;15.50;99.90
35127;DHT22;21300;52.006;5.798;2023-09-08T06:04:06;15.70;99.90
35127;DHT22;21300;52.006;5.798;2023-09-08T06:06:32;15.80;99.90
35127;DHT22;21300;52.006;5.798;2023-09-08T06:08:58;15.90;99.90
35127;DHT22;21300;52.006;5.798;2023-09-08T06:11:23;16.00;99.90
35127;DHT22;21300;52.006;5.798;2023-09-08T06:13:49;16.20;99.90
35127;DHT22;21300;52.006;5.798;2023-09-08T06:16:15;16.30;99.90
35127;DHT22;21300;52.006;5.798;2023-09-08T06:18:40;16.30;99.90
35127;DHT22;21300;52.006;5.798;2023-09-08T06:21:07;16.50;99.90
35127;DHT22;21300;52.006;5.798;2023-09-08T06:23:35;16.50;99.90
35127;DHT22;21300;52.006;5.798;2023-09-08T06:26:01;16.70;99.90
35127;DHT22;21300;52.006;5.798;2023-09-08T06:28:27;16.80;99.90
35127;DHT22;21300;52.006;5.798;2023-09-08T06:30:54;16.90;99.90
35127;DHT22;21300;52.006;5.798;2023-09-08T06:33:20;17.10;99.90
35127;DHT22;21300;52.006;5.798;2023-09-08T06:35:47;17.20;99.90
35127;DHT22;21300;52.006;5.798;2023-09-08T06:38:13;17.10;99.90
35127;DHT22;21300;52.006;5.798;2023-09-08T06:40:39;17.30;99.90
35127;DHT22;21300;52.006;5.798;2023-09-08T06:43:05;17.40;99.90
35127;DHT22;21300;52.006;5.798;2023-09-08T06:45:31;17.40;99.90
35127;DHT22;21300;52.006;5.798;2023-09-08T06:47:56;17.40;99.90
35127;DHT22;21300;52.006;5.798;2023-09-08T06:50:23;17.50;99.90
35127;DHT22;21300;52.006;5.798;2023-09-08T06:52:52;17.70;99.90
35127;DHT22;21300;52.006;5.798;2023-09-08T06:55:18;17.80;99.90
35127;DHT22;21300;52.006;5.798;2023-09-08T06:57:45;17.80;99.90
35127;DHT22;21300;52.006;5.798;2023-09-08T07:00:12;18.00;99.90
35127;DHT22;21300;52.006;5.798;2023-09-08T07:02:41;18.10;99.90
35127;DHT22;21300;52.006;5.798;2023-09-08T07:05:07;18.10;99.90
35127;DHT22;21300;52.006;5.798;2023-09-08T07:07:34;18.20;99.90
35127;DHT22;21300;52.006;5.798;2023-09-08T07:10:01;18.30;99.90
35127;DHT22;21300;52.006;5.798;2023-09-08T07:12:27;18.40;99.90
35127;DHT22;21300;52.006;5.798;2023-09-08T07:14:53;18.50;99.90
35127;DHT22;21300;52.006;5.798;2023-09-08T07:17:21;18.50;99.90
35127;DHT22;21300;52.006;5.798;2023-09-08T07:19:49;18.60;99.90
35127;DHT22;21300;52.006;5.798;2023-09-08T07:22:14;18.70;99.90
35127;DHT22;21300;52.006;5.798;2023-09-08T07:24:40;18.80;99.90
35127;DHT22;21300;52.006;5.798;2023-09-08T07:27:06;18.80;99.90
35127;DHT22;21300;52.006;5.798;2023-09-08T07:29:32;18.90;99.90
35127;DHT22;21300;52.006;5.798;2023-09-08T07:31:57;19.00;99.90
35127;DHT22;21300;52.006;5.798;2023-09-08T07:34:23;19.20;99.90
35127;DHT22;21300;52.006;5.798;2023-09-08T07:36:48;19.20;99.90
35127;DHT22;21300;52.006;5.798;2023-09-08T07:39:15;19.20;99.90
35127;DHT22;21300;52.006;5.798;2023-09-08T07:41:41;19.30;99.90
35127;DHT22;21300;52.006;5.798;2023-09-08T07:44:07;19.50;99.90
35127;DHT22;21300;52.006;5.798;2023-09-08T07:46:32;19.50;99.90
35127;DHT22;21300;52.006;5.798;2023-09-08T07:48:59;19.60;99.90
35127;DHT22;21300;52.006;5.798;2023-09-08T07:51:25;19.60;99.90
35127;DHT22;21300;52.006;5.798;2023-09-08T07:53:52;19.80;99.90
35127;DHT22;21300;52.006;5.798;2023-09-08T07:56:18;19.90;99.50
35127;DHT22;21300;52.006;5.798;2023-09-08T07:58:44;20.00;99.90
35127;DHT22;21300;52.006;5.798;2023-09-08T08:01:09;20.10;99.90
35127;DHT22;21300;52.006;5.798;2023-09-08T08:03:35;20.10;99.90
35127;DHT22;21300;52.006;5.798;2023-09-08T08:06:01;20.30;99.60
35127;DHT22;21300;52.006;5.798;2023-09-08T08:08:27;20.40;99.60
35127;DHT22;21300;52.006;5.798;2023-09-08T08:10:52;20.50;99.90
35127;DHT22;21300;52.006;5.798;2023-09-08T08:13:18;20.50;99.90
35127;DHT22;21300;52.006;5.798;2023-09-08T08:15:44;20.60;99.90
35127;DHT22;21300;52.006;5.798;2023-09-08T08:18:12;20.80;99.60
35127;DHT22;21300;52.006;5.798;2023-09-08T08:20:39;21.00;99.90
35127;DHT22;21300;52.006;5.798;2023-09-08T08:23:05;21.00;99.40
35127;DHT22;21300;52.006;5.798;2023-09-08T08:25:32;21.00;99.60
35127;DHT22;21300;52.006;5.798;2023-09-08T08:27:58;21.10;99.20
35127;DHT22;21300;52.006;5.798;2023-09-08T08:30:25;21.20;98.90
35127;DHT22;21300;52.006;5.798;2023-09-08T08:32:51;21.40;97.80
35127;DHT22;21300;52.006;5.798;2023-09-08T08:35:21;21.40;98.30
35127;DHT22;21300;52.006;5.798;2023-09-08T08:37:47;21.50;98.50
35127;DHT22;21300;52.006;5.798;2023-09-08T08:40:13;21.60;99.00
35127;DHT22;21300;52.006;5.798;2023-09-08T08:42:39;21.70;98.80
35127;DHT22;21300;52.006;5.798;2023-09-08T08:45:06;21.80;98.60
35127;DHT22;21300;52.006;5.798;2023-09-08T08:47:32;21.90;97.30
35127;DHT22;21300;52.006;5.798;2023-09-08T08:49:59;22.00;97.70
35127;DHT22;21300;52.006;5.798;2023-09-08T08:52:29;22.10;97.00
35127;DHT22;21300;52.006;5.798;2023-09-08T08:54:54;22.20;97.60
35127;DHT22;21300;52.006;5.798;2023-09-08T08:57:22;22.30;97.20
35127;DHT22;21300;52.006;5.798;2023-09-08T09:00:07;22.50;96.80
35127;DHT22;21300;52.006;5.798;2023-09-08T09:02:42;22.60;96.60
35127;DHT22;21300;52.006;5.798;2023-09-08T09:05:12;22.60;97.30
35127;DHT22;21300;52.006;5.798;2023-09-08T09:07:40;22.70;97.20
35127;DHT22;21300;52.006;5.798;2023-09-08T09:10:07;22.60;96.70
35127;DHT22;21300;52.006;5.798;2023-09-08T09:12:33;22.70;97.10
35127;DHT22;21300;52.006;5.798;2023-09-08T09:14:59;22.80;97.10
35127;DHT22;21300;52.006;5.798;2023-09-08T09:17:25;23.00;96.20
35127;DHT22;21300;52.006;5.798;2023-09-08T09:20:14;23.00;96.00
35127;DHT22;21300;52.006;5.798;2023-09-08T09:22:43;23.10;96.70
35127;DHT22;21300;52.006;5.798;2023-09-08T09:25:10;23.30;97.00
35127;DHT22;21300;52.006;5.798;2023-09-08T09:27:36;23.30;96.50
35127;DHT22;21300;52.006;5.798;2023-09-08T09:30:04;23.40;96.00
35127;DHT22;21300;52.006;5.798;2023-09-08T09:32:30;23.50;95.10
35127;DHT22;21300;52.006;5.798;2023-09-08T09:34:57;23.50;95.30
35127;DHT22;21300;52.006;5.798;2023-09-08T09:37:26;23.60;95.10
35127;DHT22;21300;52.006;5.798;2023-09-08T09:39:53;23.70;96.20
35127;DHT22;21300;52.006;5.798;2023-09-08T09:42:20;23.80;95.20
35127;DHT22;21300;52.006;5.798;2023-09-08T09:44:51;24.00;94.90
35127;DHT22;21300;52.006;5.798;2023-09-08T09:47:17;24.00;95.30
35127;DHT22;21300;52.006;5.798;2023-09-08T09:49:45;23.90;95.60
35127;DHT22;21300;52.006;5.798;2023-09-08T09:52:20;24.00;95.10
35127;DHT22;21300;52.006;5.798;2023-09-08T09:54:46;24.00;94.10
35127;DHT22;21300;52.006;5.798;2023-09-08T09:57:14;24.20;95.10
35127;DHT22;21300;52.006;5.798;2023-09-08T09:59:41;24.30;93.80
35127;DHT22;21300;52.006;5.798;2023-09-08T10:02:12;24.30;94.30
35127;DHT22;21300;52.006;5.798;2023-09-08T10:04:42;24.40;94.70
35127;DHT22;21300;52.006;5.798;2023-09-08T10:07:08;24.50;93.30
35127;DHT22;21300;52.006;5.798;2023-09-08T10:09:36;24.60;94.40
35127;DHT22;21300;52.006;5.798;2023-09-08T10:12:05;24.70;93.70
35127;DHT22;21300;52.006;5.798;2023-09-08T10:14:35;24.70;93.30
35127;DHT22;21300;52.006;5.798;2023-09-08T10:17:02;24.90;94.10
35127;DHT22;21300;52.006;5.798;2023-09-08T10:19:29;24.90;92.80
35127;DHT22;21300;52.006;5.798;2023-09-08T10:21:59;24.90;93.40
35127;DHT22;21300;52.006;5.798;2023-09-08T10:24:27;24.80;92.70
35127;DHT22;21300;52.006;5.798;2023-09-08T10:27:12;24.80;93.10
35127;DHT22;21300;52.006;5.798;2023-09-08T10:29:40;24.90;93.10
35127;DHT22;21300;52.006;5.798;2023-09-08T10:32:09;25.00;93.10
35127;DHT22;21300;52.006;5.798;2023-09-08T10:34:36;25.10;92.70
35127;DHT22;21300;52.006;5.798;2023-09-08T10:37:02;25.20;92.60
35127;DHT22;21300;52.006;5.798;2023-09-08T10:39:32;25.20;92.40
35127;DHT22;21300;52.006;5.798;2023-09-08T10:47:25;25.50;91.80
35127;DHT22;21300;52.006;5.798;2023-09-08T10:49:51;25.50;91.80
35127;DHT22;21300;52.006;5.798;2023-09-08T10:52:21;25.60;92.60
35127;DHT22;21300;52.006;5.798;2023-09-08T10:54:50;25.60;92.40
35127;DHT22;21300;52.006;5.798;2023-09-08T10:57:17;25.70;91.60
35127;DHT22;21300;52.006;5.798;2023-09-08T10:59:55;25.70;91.60
35127;DHT22;21300;52.006;5.798;2023-09-08T11:02:39;25.80;91.10
35127;DHT22;21300;52.006;5.798;2023-09-08T11:05:13;25.80;90.50
35127;DHT22;21300;52.006;5.798;2023-09-08T11:07:41;25.90;90.60
35127;DHT22;21300;52.006;5.798;2023-09-08T11:10:10;25.90;91.50
35127;DHT22;21300;52.006;5.798;2023-09-08T11:12:36;25.90;90.80
35127;DHT22;21300;52.006;5.798;2023-09-08T11:15:06;26.00;91.60
35127;DHT22;21300;52.006;5.798;2023-09-08T11:17:35;26.10;90.40
35127;DHT22;21300;52.006;5.798;2023-09-08T11:20:02;26.10;90.80
35127;DHT22;21300;52.006;5.798;2023-09-08T11:22:34;26.10;91.60
35127;DHT22;21300;52.006;5.798;2023-09-08T11:25:01;26.10;91.20
35127;DHT22;21300;52.006;5.798;2023-09-08T11:27:30;26.20;91.00
35127;DHT22;21300;52.006;5.798;2023-09-08T11:29:56;26.30;90.50
35127;DHT22;21300;52.006;5.798;2023-09-08T11:32:23;26.30;91.00
35127;DHT22;21300;52.006;5.798;2023-09-08T11:34:49;26.40;90.60
35127;DHT22;21300;52.006;5.798;2023-09-08T11:37:16;26.40;90.70
35127;DHT22;21300;52.006;5.798;2023-09-08T11:39:46;26.40;88.80
35127;DHT22;21300;52.006;5.798;2023-09-08T11:42:13;26.50;86.10
35127;DHT22;21300;52.006;5.798;2023-09-08T11:44:39;26.50;87.30
35127;DHT22;21300;52.006;5.798;2023-09-08T11:47:10;26.60;88.10
35127;DHT22;21300;52.006;5.798;2023-09-08T11:49:40;26.60;88.40
35127;DHT22;21300;52.006;5.798;2023-09-08T11:52:06;26.70;88.10
35127;DHT22;21300;52.006;5.798;2023-09-08T11:54:33;26.70;87.40
35127;DHT22;21300;52.006;5.798;2023-09-08T11:57:04;26.80;88.70
35127;DHT22;21300;52.006;5.798;2023-09-08T11:59:33;26.80;88.80
35127;DHT22;21300;52.006;5.798;2023-09-08T12:02:00;26.80;88.70
35127;DHT22;21300;52.006;5.798;2023-09-08T12:04:26;26.70;88.80
35127;DHT22;21300;52.006;5.798;2023-09-08T12:06:53;26.90;86.70
35127;DHT22;21300;52.006;5.798;2023-09-08T12:09:21;27.00;88.00
35127;DHT22;21300;52.006;5.798;2023-09-08T12:11:47;26.90;87.30
35127;DHT22;21300;52.006;5.798;2023-09-08T12:14:14;27.00;89.10
35127;DHT22;21300;52.006;5.798;2023-09-08T12:16:41;27.10;88.30
35127;DHT22;21300;52.006;5.798;2023-09-08T12:19:49;27.10;85.90
35127;DHT22;21300;52.006;5.798;2023-09-08T12:22:00;27.10;88.70
35127;DHT22;21300;52.006;5.798;2023-09-08T12:27:19;27.20;88.60
35127;DHT22;21300;52.006;5.798;2023-09-08T12:29:59;27.20;87.00
35127;DHT22;21300;52.006;5.798;2023-09-08T12:32:31;27.30;89.60
35127;DHT22;21300;52.006;5.798;2023-09-08T12:34:58;27.30;86.70
35127;DHT22;21300;52.006;5.798;2023-09-08T12:37:25;27.40;86.80
35127;DHT22;21300;52.006;5.798;2023-09-08T12:39:55;27.50;86.20
35127;DHT22;21300;52.006;5.798;2023-09-08T12:42:21;27.60;88.00
35127;DHT22;21300;52.006;5.798;2023-09-08T12:44:47;27.60;85.40
35127;DHT22;21300;52.006;5.798;2023-09-08T12:47:13;27.60;87.20
35127;DHT22;21300;52.006;5.798;2023-09-08T12:49:41;27.60;84.50
35127;DHT22;21300;52.006;5.798;2023-09-08T12:52:07;27.60;84.20
35127;DHT22;21300;52.006;5.798;2023-09-08T12:54:33;27.60;85.00
35127;DHT22;21300;52.006;5.798;2023-09-08T12:56:58;27.60;84.30
35127;DHT22;21300;52.006;5.798;2023-09-08T12:59:24;27.70;86.40
35127;DHT22;21300;52.006;5.798;2023-09-08T13:01:49;27.70;85.40
35127;DHT22;21300;52.006;5.798;2023-09-08T13:04:15;27.80;84.50
35127;DHT22;21300;52.006;5.798;2023-09-08T13:06:40;27.80;85.60
35127;DHT22;21300;52.006;5.798;2023-09-08T13:09:06;27.80;83.00
35127;DHT22;21300;52.006;5.798;2023-09-08T13:11:33;27.80;83.80
35127;DHT22;21300;52.006;5.798;2023-09-08T13:13:59;27.90;82.90
35127;DHT22;21300;52.006;5.798;2023-09-08T13:16:25;27.80;83.90
35127;DHT22;21300;52.006;5.798;2023-09-08T13:18:50;27.70;84.50
35127;DHT22;21300;52.006;5.798;2023-09-08T13:21:16;27.80;86.90
35127;DHT22;21300;52.006;5.798;2023-09-08T13:23:42;27.90;85.60
35127;DHT22;21300;52.006;5.798;2023-09-08T13:26:08;27.90;84.60
35127;DHT22;21300;52.006;5.798;2023-09-08T13:28:33;27.90;85.20
35127;DHT22;21300;52.006;5.798;2023-09-08T13:30:59;28.00;84.00
35127;DHT22;21300;52.006;5.798;2023-09-08T13:33:24;28.00;85.30
35127;DHT22;21300;52.006;5.798;2023-09-08T13:35:50;28.00;83.70
35127;DHT22;21300;52.006;5.798;2023-09-08T13:38:15;28.00;85.40
35127;DHT22;21300;52.006;5.798;2023-09-08T13:40:41;28.00;83.20
35127;DHT22;21300;52.006;5.798;2023-09-08T13:43:07;27.90;82.40
35127;DHT22;21300;52.006;5.798;2023-09-08T13:45:33;27.90;84.50
35127;DHT22;21300;52.006;5.798;2023-09-08T13:47:58;28.00;84.40
35127;DHT22;21300;52.006;5.798;2023-09-08T13:50:24;28.10;83.40
35127;DHT22;21300;52.006;5.798;2023-09-08T13:52:49;28.10;83.10
35127;DHT22;21300;52.006;5.798;2023-09-08T13:55:15;28.10;82.70
35127;DHT22;21300;52.006;5.798;2023-09-08T13:57:41;28.10;82.20
35127;DHT22;21300;52.006;5.798;2023-09-08T14:00:07;28.10;81.90
35127;DHT22;21300;52.006;5.798;2023-09-08T14:02:34;28.20;83.40
35127;DHT22;21300;52.006;5.798;2023-09-08T14:05:00;28.10;80.10
35127;DHT22;21300;52.006;5.798;2023-09-08T14:07:25;28.10;79.10
35127;DHT22;21300;52.006;5.798;2023-09-08T14:09:51;28.10;85.00
35127;DHT22;21300;52.006;5.798;2023-09-08T14:12:17;28.10;79.50
35127;DHT22;21300;52.006;5.798;2023-09-08T14:14:45;28.20;80.20
35127;DHT22;21300;52.006;5.798;2023-09-08T14:17:11;28.20;81.70
35127;DHT22;21300;52.006;5.798;2023-09-08T14:19:36;28.20;79.50
35127;DHT22;21300;52.006;5.798;2023-09-08T14:22:02;28.30;81.70
35127;DHT22;21300;52.006;5.798;2023-09-08T14:24:28;28.30;81.80
35127;DHT22;21300;52.006;5.798;2023-09-08T14:26:54;28.20;81.80
35127;DHT22;21300;52.006;5.798;2023-09-08T14:29:21;28.20;81.70
35127;DHT22;21300;52.006;5.798;2023-09-08T14:31:47;28.30;81.90
35127;DHT22;21300;52.006;5.798;2023-09-08T14:34:12;28.20;79.50
35127;DHT22;21300;52.006;5.798;2023-09-08T14:36:41;28.20;79.50
35127;DHT22;21300;52.006;5.798;2023-09-08T14:39:07;28.20;79.50
35127;DHT22;21300;52.006;5.798;2023-09-08T14:41:32;28.30;80.80
35127;DHT22;21300;52.006;5.798;2023-09-08T14:43:58;28.30;80.00
35127;DHT22;21300;52.006;5.798;2023-09-08T14:46:24;28.20;80.40
35127;DHT22;21300;52.006;5.798;2023-09-08T14:48:49;28.20;80.90
35127;DHT22;21300;52.006;5.798;2023-09-08T14:51:15;28.30;78.80
35127;DHT22;21300;52.006;5.798;2023-09-08T14:53:41;28.30;79.60
35127;DHT22;21300;52.006;5.798;2023-09-08T14:56:06;28.30;79.40
35127;DHT22;21300;52.006;5.798;2023-09-08T14:58:32;28.30;77.40
35127;DHT22;21300;52.006;5.798;2023-09-08T15:01:01;28.30;81.60
35127;DHT22;21300;52.006;5.798;2023-09-08T15:03:33;28.30;81.80
35127;DHT22;21300;52.006;5.798;2023-09-08T15:05:59;28.30;80.60
35127;DHT22;21300;52.006;5.798;2023-09-08T15:08:25;28.30;80.40
35127;DHT22;21300;52.006;5.798;2023-09-08T15:10:51;28.30;79.60
35127;DHT22;21300;52.006;5.798;2023-09-08T15:13:17;28.30;82.40
35127;DHT22;21300;52.006;5.798;2023-09-08T15:15:42;28.20;78.10
35127;DHT22;21300;52.006;5.798;2023-09-08T15:18:08;28.20;81.30
35127;DHT22;21300;52.006;5.798;2023-09-08T15:20:33;28.20;80.50
35127;DHT22;21300;52.006;5.798;2023-09-08T15:22:59;28.30;79.10
35127;DHT22;21300;52.006;5.798;2023-09-08T15:25:25;28.30;78.70
35127;DHT22;21300;52.006;5.798;2023-09-08T15:27:50;28.30;80.40
35127;DHT22;21300;52.006;5.798;2023-09-08T15:30:16;28.40;80.90
35127;DHT22;21300;52.006;5.798;2023-09-08T15:32:41;28.40;79.10
35127;DHT22;21300;52.006;5.798;2023-09-08T15:35:11;28.40;79.50
35127;DHT22;21300;52.006;5.798;2023-09-08T15:37:37;28.20;78.10
35127;DHT22;21300;52.006;5.798;2023-09-08T15:40:03;28.20;80.20
35127;DHT22;21300;52.006;5.798;2023-09-08T15:42:29;28.10;82.40